Time;durP1;ratioP1;P1;durP2;ratioP2;P2;SDS_P1;SDS_P2;PMS_P1;PMS_P2;Temp;Humidity;BMP_temperature;BMP_pressure;BME280_temperature;BME280_humidity;BME280_pressure;Samples;Min_cycle;Max_cycle;Signal;HPM_P1;HPM_P2
2023/08/07 00:01:09;;;;;;;10.50;7.25;;;;;;;;;;5075145;28;20020;-74
2023/08/07 00:03:35;;;;;;;8.80;6.82;;;;;;;;;;5087735;28;20025;-74
2023/08/07 00:06:01;;;;;;;8.48;7.43;;;;;;;;;;5077844;28;20020;-73
2023/08/07 00:08:27;;;;;;;11.38;8.35;;;;;;;;;;5080120;28;20029;-75
2023/08/07 00:10:53;;;;;;;11.10;7.97;;;;;;;;;;5088246;28;20024;-73
2023/08/07 00:13:19;;;;;;;11.90;7.43;;;;;;;;;;5077847;28;20032;-75
2023/08/07 00:15:45;;;;;;;8.85;7.45;;;;;;;;;;5089724;28;20028;-71
2023/08/07 00:18:11;;;;;;;9.30;6.72;;;;;;;;;;5082772;28;20024;-74
2023/08/07 00:20:37;;;;;;;12.60;8.25;;;;;;;;;;5082449;28;20112;-74
2023/08/07 00:23:03;;;;;;;9.23;6.80;;;;;;;;;;5088396;28;20032;-74
2023/08/07 00:25:29;;;;;;;8.70;7.03;;;;;;;;;;5091730;28;20483;-75
2023/08/07 00:27:55;;;;;;;8.60;6.75;;;;;;;;;;5076035;28;20032;-73
2023/08/07 00:30:21;;;;;;;8.02;5.88;;;;;;;;;;5072663;28;20121;-75
2023/08/07 00:32:47;;;;;;;5.95;5.35;;;;;;;;;;5087832;28;20024;-75
2023/08/07 00:35:14;;;;;;;12.55;7.07;;;;;;;;;;5076890;28;20040;-75
2023/08/07 00:37:40;;;;;;;14.02;7.28;;;;;;;;;;5092768;28;20389;-73
2023/08/07 00:40:06;;;;;;;8.23;6.70;;;;;;;;;;5086326;28;20021;-74
2023/08/07 00:42:32;;;;;;;8.13;6.00;;;;;;;;;;5085111;28;20027;-74
2023/08/07 00:44:58;;;;;;;10.95;5.97;;;;;;;;;;5072382;28;20029;-74
2023/08/07 00:47:25;;;;;;;9.70;6.70;;;;;;;;;;5090309;28;20024;-73
2023/08/07 00:49:51;;;;;;;10.27;6.50;;;;;;;;;;5075692;28;20031;-73
2023/08/07 00:52:17;;;;;;;7.55;6.10;;;;;;;;;;5084644;28;20074;-72
2023/08/07 00:54:43;;;;;;;6.65;5.60;;;;;;;;;;5084773;28;20510;-73
2023/08/07 00:57:11;;;;;;;10.00;6.38;;;;;;;;;;5093626;28;20039;-74
2023/08/07 00:59:37;;;;;;;7.97;7.15;;;;;;;;;;5059095;28;20027;-73
2023/08/07 01:02:04;;;;;;;8.75;6.93;;;;;;;;;;5071950;28;20115;-73
2023/08/07 01:04:31;;;;;;;8.05;7.15;;;;;;;;;;5084718;28;20023;-74
2023/08/07 01:06:57;;;;;;;8.65;7.65;;;;;;;;;;5078425;28;20400;-74
2023/08/07 01:09:23;;;;;;;8.63;7.60;;;;;;;;;;5090085;28;20024;-73
2023/08/07 01:11:50;;;;;;;9.18;7.72;;;;;;;;;;5088261;28;20020;-74
2023/08/07 01:14:25;;;;;;;9.35;7.68;;;;;;;;;;5093488;28;20016;-74
2023/08/07 01:16:53;;;;;;;8.90;8.00;;;;;;;;;;5071972;28;20094;-74
2023/08/07 01:19:25;;;;;;;10.02;7.82;;;;;;;;;;5074759;28;20016;-73
2023/08/07 01:22:04;;;;;;;8.63;7.75;;;;;;;;;;5060526;28;20049;-74
2023/08/07 01:24:30;;;;;;;11.57;8.07;;;;;;;;;;5082179;28;20103;-74
2023/08/07 01:26:58;;;;;;;9.35;7.20;;;;;;;;;;5087705;28;20500;-75
2023/08/07 01:29:32;;;;;;;8.82;7.93;;;;;;;;;;5080087;28;20077;-74
2023/08/07 01:32:00;;;;;;;8.88;8.07;;;;;;;;;;5086525;28;20086;-75
2023/08/07 01:34:27;;;;;;;8.65;7.72;;;;;;;;;;5083572;28;20031;-73
2023/08/07 01:36:54;;;;;;;12.20;8.85;;;;;;;;;;5078504;28;20025;-75
2023/08/07 01:39:20;;;;;;;7.03;6.32;;;;;;;;;;5090120;28;20012;-75
2023/08/07 01:41:47;;;;;;;9.10;6.97;;;;;;;;;;5078209;28;20031;-73
2023/08/07 01:44:13;;;;;;;9.00;6.47;;;;;;;;;;5071393;28;20027;-74
2023/08/07 01:46:39;;;;;;;10.98;7.15;;;;;;;;;;5084969;28;20031;-75
2023/08/07 01:49:05;;;;;;;6.93;6.32;;;;;;;;;;5071303;28;20495;-74
2023/08/07 01:51:31;;;;;;;9.25;6.53;;;;;;;;;;5089246;28;20025;-75
2023/08/07 01:53:57;;;;;;;10.02;7.07;;;;;;;;;;5079372;28;20019;-75
2023/08/07 01:56:23;;;;;;;8.45;6.75;;;;;;;;;;5082637;28;20021;-74
2023/08/07 01:58:49;;;;;;;7.68;6.32;;;;;;;;;;5074259;28;20377;-73
2023/08/07 02:01:15;;;;;;;8.68;7.18;;;;;;;;;;5076258;28;20115;-73
2023/08/07 02:03:41;;;;;;;6.93;6.22;;;;;;;;;;5088850;28;20154;-74
2023/08/07 02:06:07;;;;;;;9.45;7.03;;;;;;;;;;5074806;28;20494;-75
2023/08/07 02:08:33;;;;;;;10.98;9.00;;;;;;;;;;5081046;28;20484;-73
2023/08/07 02:11:01;;;;;;;11.23;9.52;;;;;;;;;;5087383;28;20036;-73
2023/08/07 02:13:27;;;;;;;11.55;10.45;;;;;;;;;;5073212;28;20391;-73
2023/08/07 02:15:53;;;;;;;15.70;13.05;;;;;;;;;;5086263;28;20017;-74
2023/08/07 02:18:19;;;;;;;13.93;12.45;;;;;;;;;;5081707;28;20031;-73
2023/08/07 02:20:46;;;;;;;12.20;11.00;;;;;;;;;;5079068;28;20081;-73
2023/08/07 02:23:12;;;;;;;11.93;10.75;;;;;;;;;;5088807;28;20020;-74
2023/08/07 02:25:38;;;;;;;15.95;12.07;;;;;;;;;;5057882;28;20088;-72
2023/08/07 02:28:04;;;;;;;15.88;11.63;;;;;;;;;;5084836;28;20428;-74
2023/08/07 02:30:31;;;;;;;18.95;12.07;;;;;;;;;;5065043;28;20060;-74
2023/08/07 02:32:57;;;;;;;14.35;12.80;;;;;;;;;;5076569;28;20021;-74
2023/08/07 02:35:23;;;;;;;15.93;12.82;;;;;;;;;;5088117;28;20081;-73
2023/08/07 02:37:49;;;;;;;13.45;12.05;;;;;;;;;;5076970;28;20024;-73
2023/08/07 02:40:17;;;;;;;12.65;11.25;;;;;;;;;;5065419;28;20024;-74
2023/08/07 02:42:43;;;;;;;14.30;12.27;;;;;;;;;;5083292;28;20051;-74
2023/08/07 02:45:09;;;;;;;17.05;12.60;;;;;;;;;;5092293;28;20020;-74
2023/08/07 02:47:35;;;;;;;16.20;11.82;;;;;;;;;;5073603;28;20498;-73
2023/08/07 02:50:01;;;;;;;11.57;10.40;;;;;;;;;;5084544;28;20024;-74
2023/08/07 02:52:27;;;;;;;12.18;11.00;;;;;;;;;;5082331;28;20035;-74
2023/08/07 02:54:53;;;;;;;12.25;10.60;;;;;;;;;;5077244;28;20480;-74
2023/08/07 02:57:19;;;;;;;15.52;11.57;;;;;;;;;;5087585;28;20028;-73
2023/08/07 02:59:45;;;;;;;13.38;10.50;;;;;;;;;;5076285;28;20016;-74
2023/08/07 03:02:11;;;;;;;12.38;10.95;;;;;;;;;;5083131;28;20081;-74
2023/08/07 03:04:37;;;;;;;15.30;13.15;;;;;;;;;;5083955;28;20450;-73
2023/08/07 03:07:03;;;;;;;19.65;14.07;;;;;;;;;;5070214;28;20028;-72
2023/08/07 03:09:29;;;;;;;21.33;16.08;;;;;;;;;;5088155;28;20050;-73
2023/08/07 03:11:55;;;;;;;30.67;18.42;;;;;;;;;;5077487;28;20023;-73
2023/08/07 03:14:21;;;;;;;38.55;18.23;;;;;;;;;;5081468;28;20484;-72
2023/08/07 03:16:47;;;;;;;23.23;13.90;;;;;;;;;;5073169;28;20028;-72
2023/08/07 03:19:14;;;;;;;10.55;9.10;;;;;;;;;;5074712;28;20017;-73
2023/08/07 03:21:40;;;;;;;12.73;8.25;;;;;;;;;;5075395;28;20020;-74
2023/08/07 03:24:06;;;;;;;9.48;6.43;;;;;;;;;;5065864;28;20123;-74
2023/08/07 03:26:32;;;;;;;12.65;7.10;;;;;;;;;;5082735;28;20020;-74
2023/08/07 03:28:58;;;;;;;8.77;6.80;;;;;;;;;;5076466;28;20507;-73
2023/08/07 03:31:24;;;;;;;8.98;5.68;;;;;;;;;;5088208;28;20027;-73
2023/08/07 03:33:50;;;;;;;8.63;6.68;;;;;;;;;;5076780;28;20028;-74
2023/08/07 03:36:16;;;;;;;12.77;7.15;;;;;;;;;;5064548;28;20389;-74
2023/08/07 03:38:42;;;;;;;9.75;6.82;;;;;;;;;;5083751;28;20016;-73
2023/08/07 03:41:08;;;;;;;13.30;8.50;;;;;;;;;;5056916;28;20454;-74
2023/08/07 03:43:34;;;;;;;13.40;8.18;;;;;;;;;;5089345;28;20103;-73
2023/08/07 03:46:00;;;;;;;80.00;35.78;;;;;;;;;;5082168;28;20095;-73
2023/08/07 03:48:26;;;;;;;20.45;11.02;;;;;;;;;;5084671;28;20484;-74
2023/08/07 03:50:52;;;;;;;12.90;9.07;;;;;;;;;;5089834;28;20088;-74
2023/08/07 03:53:18;;;;;;;16.63;9.38;;;;;;;;;;5079119;28;20024;-74
2023/08/07 03:55:50;;;;;;;17.25;11.30;;;;;;;;;;5090659;28;20357;-74
2023/08/07 03:58:16;;;;;;;16.27;10.43;;;;;;;;;;5084747;28;20012;-74
2023/08/07 04:00:42;;;;;;;13.75;9.65;;;;;;;;;;5065112;28;20032;-74
2023/08/07 04:03:08;;;;;;;17.27;11.55;;;;;;;;;;5091857;28;20024;-75
2023/08/07 04:05:34;;;;;;;12.50;9.23;;;;;;;;;;5079136;28;20020;-74
2023/08/07 04:08:00;;;;;;;16.27;11.85;;;;;;;;;;5088362;28;20032;-74
2023/08/07 04:10:26;;;;;;;20.70;12.93;;;;;;;;;;5085524;28;20028;-74
2023/08/07 04:12:52;;;;;;;23.10;14.50;;;;;;;;;;5081172;28;20446;-73
2023/08/07 04:15:18;;;;;;;19.65;14.52;;;;;;;;;;5073653;28;20059;-73
2023/08/07 04:17:44;;;;;;;25.83;14.55;;;;;;;;;;5079777;28;20043;-74
2023/08/07 04:20:10;;;;;;;18.65;14.20;;;;;;;;;;5094802;28;20016;-74
2023/08/07 04:22:36;;;;;;;25.80;15.63;;;;;;;;;;5082949;28;20029;-73
2023/08/07 04:25:02;;;;;;;20.05;15.25;;;;;;;;;;5090788;28;20054;-73
2023/08/07 04:27:28;;;;;;;24.60;16.77;;;;;;;;;;5078722;28;20028;-73
2023/08/07 04:29:54;;;;;;;21.67;16.73;;;;;;;;;;5088753;28;20024;-74
2023/08/07 04:32:20;;;;;;;19.23;13.10;;;;;;;;;;5065908;28;20115;-73
2023/08/07 04:34:46;;;;;;;28.67;18.27;;;;;;;;;;5063387;28;20052;-73
2023/08/07 04:37:12;;;;;;;19.35;15.43;;;;;;;;;;5091183;28;20039;-72
2023/08/07 04:39:38;;;;;;;24.00;18.67;;;;;;;;;;5078467;28;20034;-73
2023/08/07 04:42:05;;;;;;;23.30;17.83;;;;;;;;;;5069113;28;20472;-73
2023/08/07 04:44:31;;;;;;;21.48;17.30;;;;;;;;;;5067680;28;20515;-74
2023/08/07 04:46:57;;;;;;;22.45;17.40;;;;;;;;;;5061669;28;20028;-73
2023/08/07 04:49:23;;;;;;;25.33;16.98;;;;;;;;;;5072989;28;20055;-73
2023/08/07 04:51:49;;;;;;;26.02;17.00;;;;;;;;;;5079470;28;20044;-74
2023/08/07 04:54:15;;;;;;;24.33;16.00;;;;;;;;;;5085490;28;20538;-74
2023/08/07 04:56:44;;;;;;;27.05;18.73;;;;;;;;;;5086230;28;20024;-74
2023/08/07 04:59:10;;;;;;;22.55;18.08;;;;;;;;;;5077593;28;20419;-74
2023/08/07 05:01:36;;;;;;;19.85;16.13;;;;;;;;;;5075410;28;20017;-73
2023/08/07 05:04:02;;;;;;;21.05;16.98;;;;;;;;;;5086211;28;20029;-74
2023/08/07 05:06:28;;;;;;;25.00;17.88;;;;;;;;;;5083745;28;20024;-73
2023/08/07 05:08:54;;;;;;;17.73;15.38;;;;;;;;;;5060579;28;20112;-73
2023/08/07 05:11:20;;;;;;;25.58;16.15;;;;;;;;;;5071140;28;20406;-74
2023/08/07 05:13:46;;;;;;;17.67;15.30;;;;;;;;;;5060068;28;20115;-74
2023/08/07 05:16:12;;;;;;;21.13;16.77;;;;;;;;;;5084646;28;20028;-72
2023/08/07 05:18:38;;;;;;;20.88;16.08;;;;;;;;;;5086045;28;20027;-74
2023/08/07 05:21:04;;;;;;;15.55;12.82;;;;;;;;;;5094155;28;20020;-72
2023/08/07 05:23:30;;;;;;;15.80;12.43;;;;;;;;;;5076590;28;20025;-73
2023/08/07 05:25:56;;;;;;;15.30;11.48;;;;;;;;;;5086807;28;20105;-73
2023/08/07 05:28:22;;;;;;;13.13;11.02;;;;;;;;;;5064709;28;20483;-72
2023/08/07 05:30:48;;;;;;;15.57;13.30;;;;;;;;;;5079277;28;20028;-73
2023/08/07 05:33:15;;;;;;;16.17;10.38;;;;;;;;;;5089512;28;20020;-72
2023/08/07 05:35:41;;;;;;;12.63;9.60;;;;;;;;;;5058725;28;20020;-72
2023/08/07 05:38:07;;;;;;;10.48;7.90;;;;;;;;;;5084902;28;20021;-72
2023/08/07 05:40:36;;;;;;;10.68;7.68;;;;;;;;;;5065817;28;20511;-72
2023/08/07 05:43:02;;;;;;;11.27;8.32;;;;;;;;;;5077196;28;20025;-76
2023/08/07 05:45:28;;;;;;;12.63;7.60;;;;;;;;;;5071075;28;20031;-71
2023/08/07 05:47:54;;;;;;;11.50;7.63;;;;;;;;;;5060478;28;20165;-73
2023/08/07 05:50:20;;;;;;;11.93;7.22;;;;;;;;;;5082932;28;20025;-72
2023/08/07 05:52:46;;;;;;;8.35;6.07;;;;;;;;;;5085809;28;20803;-71
2023/08/07 05:55:12;;;;;;;6.90;6.30;;;;;;;;;;5076088;28;20020;-71
2023/08/07 05:57:38;;;;;;;10.77;5.50;;;;;;;;;;5088587;28;20024;-72
2023/08/07 06:00:05;;;;;;;7.90;5.13;;;;;;;;;;5094942;28;20048;-73
2023/08/07 06:02:31;;;;;;;7.07;5.07;;;;;;;;;;5081484;28;20040;-72
2023/08/07 06:04:57;;;;;;;6.57;4.80;;;;;;;;;;5087116;28;20539;-72
2023/08/07 06:07:23;;;;;;;5.50;4.25;;;;;;;;;;5075133;28;20024;-73
2023/08/07 06:09:49;;;;;;;7.35;3.42;;;;;;;;;;5091449;28;20501;-73
2023/08/07 06:12:15;;;;;;;4.00;3.25;;;;;;;;;;5073739;28;20073;-73
2023/08/07 06:14:41;;;;;;;7.28;3.92;;;;;;;;;;5079741;28;20024;-76
2023/08/07 06:17:07;;;;;;;4.07;3.40;;;;;;;;;;5089960;28;20081;-74
2023/08/07 06:19:33;;;;;;;6.60;3.30;;;;;;;;;;5075308;28;20433;-73
2023/08/07 06:21:59;;;;;;;6.07;2.70;;;;;;;;;;5085359;28;20202;-72
2023/08/07 06:24:25;;;;;;;7.03;2.97;;;;;;;;;;5082419;28;20024;-74
2023/08/07 06:26:51;;;;;;;3.05;2.70;;;;;;;;;;5059218;28;20035;-72
2023/08/07 06:29:17;;;;;;;2.92;2.63;;;;;;;;;;5087926;28;20057;-72
2023/08/07 06:31:43;;;;;;;5.03;2.67;;;;;;;;;;5073361;28;20031;-71
2023/08/07 06:34:09;;;;;;;3.92;2.33;;;;;;;;;;5083542;28;20040;-73
2023/08/07 06:36:35;;;;;;;3.20;2.50;;;;;;;;;;5083263;28;20119;-73
2023/08/07 06:39:03;;;;;;;3.60;2.45;;;;;;;;;;5076528;28;20035;-72
2023/08/07 06:41:30;;;;;;;3.40;2.42;;;;;;;;;;5088434;28;20081;-72
2023/08/07 06:43:56;;;;;;;3.95;2.28;;;;;;;;;;5082614;28;20035;-72
2023/08/07 06:46:26;;;;;;;5.03;2.15;;;;;;;;;;5082100;28;20032;-73
2023/08/07 06:48:52;;;;;;;2.95;2.42;;;;;;;;;;5085222;28;20035;-73
2023/08/07 06:51:18;;;;;;;3.10;2.40;;;;;;;;;;5074654;28;20025;-72
2023/08/07 06:53:44;;;;;;;4.43;2.47;;;;;;;;;;5086858;28;20016;-71
2023/08/07 06:56:10;;;;;;;6.30;2.53;;;;;;;;;;5079691;28;20020;-73
2023/08/07 06:58:36;;;;;;;4.38;2.15;;;;;;;;;;5069421;28;20033;-75
2023/08/07 07:01:02;;;;;;;4.68;2.00;;;;;;;;;;5086910;28;20046;-75
2023/08/07 07:03:28;;;;;;;7.25;5.25;;;;;;;;;;5074841;28;20024;-75
2023/08/07 07:05:55;;;;;;;33.45;23.52;;;;;;;;;;5069701;28;20020;-75
2023/08/07 07:08:23;;;;;;;10.50;6.10;;;;;;;;;;5081027;28;20040;-75
2023/08/07 07:10:49;;;;;;;4.20;3.20;;;;;;;;;;5077920;28;20055;-75
2023/08/07 07:13:15;;;;;;;6.18;2.92;;;;;;;;;;5087892;28;20020;-74
2023/08/07 07:15:41;;;;;;;2.22;1.75;;;;;;;;;;5075190;28;20487;-75
2023/08/07 07:18:07;;;;;;;3.00;2.08;;;;;;;;;;5069404;28;20396;-75
2023/08/07 07:20:34;;;;;;;4.95;2.55;;;;;;;;;;5071523;28;20027;-75
2023/08/07 07:23:00;;;;;;;3.55;1.80;;;;;;;;;;5068182;28;20028;-73
2023/08/07 07:25:26;;;;;;;3.28;1.58;;;;;;;;;;5074138;28;20388;-75
2023/08/07 07:27:52;;;;;;;2.88;1.90;;;;;;;;;;5085177;28;20016;-73
2023/08/07 07:30:18;;;;;;;3.22;2.15;;;;;;;;;;5062246;28;20024;-73
2023/08/07 07:32:44;;;;;;;2.58;1.67;;;;;;;;;;5078178;28;20395;-73
2023/08/07 07:35:10;;;;;;;2.47;2.20;;;;;;;;;;5069392;28;20020;-74
2023/08/07 07:37:36;;;;;;;3.53;2.50;;;;;;;;;;5074153;28;20016;-74
2023/08/07 07:40:02;;;;;;;3.90;1.77;;;;;;;;;;5065716;28;20032;-70
2023/08/07 07:42:28;;;;;;;5.78;1.95;;;;;;;;;;5063516;28;20028;-73
2023/08/07 07:44:54;;;;;;;2.72;1.45;;;;;;;;;;5076677;28;20131;-73
2023/08/07 07:47:20;;;;;;;2.33;1.27;;;;;;;;;;5066913;28;20111;-74
2023/08/07 07:49:47;;;;;;;14.07;2.60;;;;;;;;;;5088507;28;20058;-73
2023/08/07 07:52:13;;;;;;;3.83;2.25;;;;;;;;;;5078915;28;20449;-73
2023/08/07 07:54:39;;;;;;;5.80;1.98;;;;;;;;;;5089712;28;20034;-75
2023/08/07 07:57:06;;;;;;;2.30;1.08;;;;;;;;;;5090421;28;20125;-71
2023/08/07 07:59:32;;;;;;;7.32;2.55;;;;;;;;;;5074191;28;20020;-72
2023/08/07 08:01:58;;;;;;;3.38;0.95;;;;;;;;;;5084140;28;20020;-73
2023/08/07 08:04:24;;;;;;;3.30;1.48;;;;;;;;;;5115337;22;20056;-72
2023/08/07 08:06:50;;;;;;;2.05;0.90;;;;;;;;;;5047092;28;20037;-72
2023/08/07 08:09:16;;;;;;;1.73;1.13;;;;;;;;;;5032703;28;20381;-71
2023/08/07 08:11:42;;;;;;;2.75;1.20;;;;;;;;;;5050432;28;20032;-72
2023/08/07 08:14:08;;;;;;;2.38;1.30;;;;;;;;;;5050401;28;20399;-72
2023/08/07 08:16:34;;;;;;;2.10;1.50;;;;;;;;;;5049590;28;20021;-73
2023/08/07 08:19:00;;;;;;;2.00;1.23;;;;;;;;;;5027627;28;20026;-72
2023/08/07 08:21:27;;;;;;;2.80;1.70;;;;;;;;;;5012996;28;20036;-71
2023/08/07 08:23:53;;;;;;;2.08;1.50;;;;;;;;;;5030731;28;20076;-72
2023/08/07 08:26:19;;;;;;;1.95;1.05;;;;;;;;;;5030369;28;20488;-72
2023/08/07 08:28:45;;;;;;;3.08;1.67;;;;;;;;;;5030389;28;20025;-72
2023/08/07 08:31:11;;;;;;;2.88;1.35;;;;;;;;;;5032611;28;20480;-72
2023/08/07 08:33:37;;;;;;;4.85;2.47;;;;;;;;;;5016276;28;20047;-73
2023/08/07 08:36:03;;;;;;;2.53;1.50;;;;;;;;;;5034029;28;20037;-72
2023/08/07 08:38:32;;;;;;;3.25;0.98;;;;;;;;;;5033752;28;20022;-71
2023/08/07 08:40:59;;;;;;;2.92;1.35;;;;;;;;;;5016190;28;20026;-71
2023/08/07 08:43:25;;;;;;;2.08;1.30;;;;;;;;;;5033951;28;20040;-72
2023/08/07 08:45:52;;;;;;;3.95;1.30;;;;;;;;;;5033985;28;20032;-72
2023/08/07 08:48:23;;;;;;;4.63;1.15;;;;;;;;;;5035157;28;20037;-72
2023/08/07 08:50:50;;;;;;;3.03;1.25;;;;;;;;;;5015883;28;20068;-71
2023/08/07 08:53:16;;;;;;;1.73;1.20;;;;;;;;;;5034018;28;20022;-71
2023/08/07 08:55:46;;;;;;;14.05;1.40;;;;;;;;;;5033671;28;20083;-72
2023/08/07 08:58:13;;;;;;;3.20;1.30;;;;;;;;;;5048702;28;20033;-72
2023/08/07 09:00:39;;;;;;;8.00;1.88;;;;;;;;;;5053893;28;20029;-72
2023/08/07 09:03:05;;;;;;;2.45;0.88;;;;;;;;;;5053464;28;20021;-72
2023/08/07 09:05:32;;;;;;;5.32;1.83;;;;;;;;;;5053451;28;20029;-71
2023/08/07 09:07:58;;;;;;;15.55;2.10;;;;;;;;;;5053292;28;20067;-73
2023/08/07 09:10:24;;;;;;;2.67;1.20;;;;;;;;;;5053390;28;20107;-73
2023/08/07 09:12:57;;;;;;;1.63;0.88;;;;;;;;;;5053596;28;20504;-73
2023/08/07 09:15:24;;;;;;;2.05;0.82;;;;;;;;;;5054579;28;20033;-72
2023/08/07 09:17:50;;;;;;;1.67;0.80;;;;;;;;;;5053270;28;20469;-73
2023/08/07 09:20:17;;;;;;;4.38;1.27;;;;;;;;;;5053197;28;20100;-71
2023/08/07 09:22:43;;;;;;;1.35;1.00;;;;;;;;;;5042127;28;20102;-72
2023/08/07 09:25:09;;;;;;;1.92;0.80;;;;;;;;;;5033247;28;20030;-72
2023/08/07 09:27:36;;;;;;;1.40;0.60;;;;;;;;;;5032773;28;20028;-72
2023/08/07 09:30:03;;;;;;;6.63;1.25;;;;;;;;;;5015283;28;20029;-71
2023/08/07 09:32:29;;;;;;;1.15;0.68;;;;;;;;;;5015311;28;20446;-72
2023/08/07 09:34:55;;;;;;;5.35;1.08;;;;;;;;;;5015389;28;20022;-72
2023/08/07 09:37:21;;;;;;;6.25;0.85;;;;;;;;;;4998993;28;20407;-72
2023/08/07 09:39:47;;;;;;;4.28;1.65;;;;;;;;;;5032992;28;20052;-72
2023/08/07 09:42:17;;;;;;;3.45;1.70;;;;;;;;;;5032812;28;20033;-72
2023/08/07 09:44:48;;;;;;;3.03;1.00;;;;;;;;;;5032991;28;20030;-73
2023/08/07 09:47:14;;;;;;;4.85;1.10;;;;;;;;;;5015231;28;20029;-72
2023/08/07 09:49:40;;;;;;;5.57;1.33;;;;;;;;;;5032708;28;20083;-73
2023/08/07 09:52:07;;;;;;;5.38;1.33;;;;;;;;;;5032403;28;20022;-72
2023/08/07 09:54:33;;;;;;;4.18;0.82;;;;;;;;;;5032395;28;20112;-73
2023/08/07 09:57:00;;;;;;;6.28;1.30;;;;;;;;;;5032418;28;20030;-70
2023/08/07 09:59:27;;;;;;;2.03;1.02;;;;;;;;;;5032658;28;20025;-72
2023/08/07 10:01:55;;;;;;;1.85;0.93;;;;;;;;;;5032404;28;20456;-72
2023/08/07 10:04:24;;;;;;;3.38;1.13;;;;;;;;;;5032552;28;20025;-72
2023/08/07 10:06:50;;;;;;;3.33;0.90;;;;;;;;;;5032524;28;20451;-72
2023/08/07 10:09:16;;;;;;;2.78;1.02;;;;;;;;;;5032293;28;20036;-71
2023/08/07 10:11:42;;;;;;;2.45;0.65;;;;;;;;;;5032447;28;20104;-71
2023/08/07 10:14:13;;;;;;;3.42;1.48;;;;;;;;;;5032176;28;20508;-71
2023/08/07 10:16:41;;;;;;;3.78;0.98;;;;;;;;;;5032137;28;20017;-71
2023/08/07 10:19:07;;;;;;;0.80;0.70;;;;;;;;;;5032191;28;20014;-72
2023/08/07 10:21:38;;;;;;;0.73;0.60;;;;;;;;;;5014575;28;20124;-71
2023/08/07 10:24:05;;;;;;;2.47;0.75;;;;;;;;;;5032161;28;20022;-72
2023/08/07 10:26:32;;;;;;;148.25;9.57;;;;;;;;;;5031898;28;20026;-72
2023/08/07 10:29:01;;;;;;;3.10;0.95;;;;;;;;;;5032190;28;20045;-72
2023/08/07 10:31:27;;;;;;;4.78;1.13;;;;;;;;;;5031976;28;20021;-71
2023/08/07 10:33:53;;;;;;;6.97;1.15;;;;;;;;;;5031940;28;20397;-73
2023/08/07 10:36:19;;;;;;;3.47;1.38;;;;;;;;;;5031838;28;20036;-73
2023/08/07 10:38:45;;;;;;;2.28;1.27;;;;;;;;;;5031540;28;20024;-72
2023/08/07 10:41:15;;;;;;;3.65;1.52;;;;;;;;;;5013896;28;20037;-70
2023/08/07 10:43:41;;;;;;;2.95;1.90;;;;;;;;;;5031623;28;20077;-72
2023/08/07 10:46:21;;;;;;;2.70;1.67;;;;;;;;;;5031648;28;20075;-72
2023/08/07 10:48:48;;;;;;;2.15;1.35;;;;;;;;;;5013710;28;20033;-72
2023/08/07 10:51:19;;;;;;;2.40;1.27;;;;;;;;;;5032455;28;20026;-71
2023/08/07 10:53:47;;;;;;;4.15;1.20;;;;;;;;;;5030853;28;20025;-71
2023/08/07 10:56:16;;;;;;;1.23;1.00;;;;;;;;;;5031419;28;20433;-72
2023/08/07 10:58:42;;;;;;;2.90;1.23;;;;;;;;;;5030725;28;20037;-71
2023/08/07 11:01:20;;;;;;;3.97;1.08;;;;;;;;;;5031316;28;20469;-73
2023/08/07 11:03:57;;;;;;;3.38;0.93;;;;;;;;;;5031250;28;20033;-71
2023/08/07 11:06:27;;;;;;;1.85;1.15;;;;;;;;;;5031235;28;20120;-71
2023/08/07 11:08:53;;;;;;;3.22;1.10;;;;;;;;;;5031053;28;20234;-72
2023/08/07 11:11:19;;;;;;;1.60;1.17;;;;;;;;;;5044176;28;20032;-71
2023/08/07 11:13:47;;;;;;;1.48;1.15;;;;;;;;;;5051234;28;20504;-72
2023/08/07 11:16:13;;;;;;;2.95;1.10;;;;;;;;;;5051358;28;20064;-71
2023/08/07 11:18:42;;;;;;;1.85;0.70;;;;;;;;;;5032760;28;20032;-72
2023/08/07 11:21:10;;;;;;;4.22;0.73;;;;;;;;;;5051609;28;20032;-72
2023/08/07 11:23:36;;;;;;;2.88;0.82;;;;;;;;;;5051128;28;20488;-72
2023/08/07 11:26:03;;;;;;;1.35;0.73;;;;;;;;;;5049547;28;20033;-72
2023/08/07 11:28:29;;;;;;;16.38;1.92;;;;;;;;;;5049366;28;20017;-71
2023/08/07 11:30:56;;;;;;;1.80;0.90;;;;;;;;;;5052989;28;20013;-72
2023/08/07 11:33:24;;;;;;;0.85;0.80;;;;;;;;;;5050507;28;20025;-72
2023/08/07 11:35:50;;;;;;;0.80;0.80;;;;;;;;;;5050664;28;20017;-72
2023/08/07 11:38:30;;;;;;;0.70;0.70;;;;;;;;;;5050211;28;20104;-72
2023/08/07 11:40:57;;;;;;;6.00;0.90;;;;;;;;;;5051548;28;20438;-72
2023/08/07 11:43:30;;;;;;;2.30;0.77;;;;;;;;;;5051151;28;20052;-72
2023/08/07 11:45:57;;;;;;;2.40;0.85;;;;;;;;;;5050806;28;20082;-73
2023/08/07 11:48:30;;;;;;;3.20;0.80;;;;;;;;;;5033035;28;20064;-72
2023/08/07 11:50:57;;;;;;;1.25;0.90;;;;;;;;;;5051191;28;20025;-72
2023/08/07 11:53:23;;;;;;;2.00;1.25;;;;;;;;;;5051376;28;20035;-72
2023/08/07 11:55:58;;;;;;;2.03;0.90;;;;;;;;;;5051077;28;20053;-72
2023/08/07 11:58:25;;;;;;;1.20;0.50;;;;;;;;;;5050431;28;20056;-72
2023/08/07 12:00:51;;;;;;;1.60;1.00;;;;;;;;;;5050784;28;20032;-72
2023/08/07 12:03:43;;;;;;;1.77;0.50;;;;;;;;;;5050757;28;20021;-72
2023/08/07 12:06:10;;;;;;;9.05;1.10;;;;;;;;;;5050836;28;20098;-72
2023/08/07 12:08:36;;;;;;;1.75;0.60;;;;;;;;;;5054825;28;20465;-71
2023/08/07 12:11:09;;;;;;;1.05;0.47;;;;;;;;;;5054476;28;20527;-72
2023/08/07 12:13:45;;;;;;;4.95;1.17;;;;;;;;;;5054413;28;20377;-72
2023/08/07 12:16:15;;;;;;;1.38;0.55;;;;;;;;;;5054252;28;20017;-72
2023/08/07 12:18:44;;;;;;;2.75;0.65;;;;;;;;;;5054316;28;20018;-72
2023/08/07 12:21:10;;;;;;;1.05;0.50;;;;;;;;;;5054332;28;20056;-73
2023/08/07 12:23:37;;;;;;;1.15;0.50;;;;;;;;;;5053983;28;20025;-72
2023/08/07 12:26:06;;;;;;;0.65;0.38;;;;;;;;;;5054250;28;20052;-72
2023/08/07 12:28:32;;;;;;;1.45;0.60;;;;;;;;;;5054214;28;20059;-72
2023/08/07 12:30:58;;;;;;;1.55;0.45;;;;;;;;;;5052666;28;20025;-72
2023/08/07 12:33:24;;;;;;;2.85;0.73;;;;;;;;;;5052747;28;20028;-72
2023/08/07 12:35:51;;;;;;;3.70;0.65;;;;;;;;;;5054064;28;20481;-73
2023/08/07 12:38:17;;;;;;;0.68;0.50;;;;;;;;;;5054024;28;20354;-72
2023/08/07 12:40:43;;;;;;;5.10;0.68;;;;;;;;;;5036254;28;20032;-72
2023/08/07 12:43:09;;;;;;;1.10;0.52;;;;;;;;;;5054059;28;20100;-72
2023/08/07 12:45:35;;;;;;;1.95;0.40;;;;;;;;;;5053958;28;20033;-72
2023/08/07 12:48:01;;;;;;;1.45;0.47;;;;;;;;;;5053890;28;20025;-71
2023/08/07 12:50:28;;;;;;;9.75;0.95;;;;;;;;;;5035705;28;20098;-72
2023/08/07 12:52:54;;;;;;;1.30;0.60;;;;;;;;;;5053575;28;20501;-72
2023/08/07 12:55:20;;;;;;;2.15;0.77;;;;;;;;;;5053651;28;20021;-72
2023/08/07 12:57:46;;;;;;;0.77;0.50;;;;;;;;;;5053419;28;20071;-72
2023/08/07 13:00:14;;;;;;;0.98;0.38;;;;;;;;;;5053680;28;20025;-71
2023/08/07 13:02:44;;;;;;;1.50;0.40;;;;;;;;;;5035436;28;20116;-72
2023/08/07 13:05:10;;;;;;;2.05;0.68;;;;;;;;;;5053405;28;20029;-73
2023/08/07 13:07:37;;;;;;;1.80;0.90;;;;;;;;;;5053440;28;20029;-73
2023/08/07 13:10:05;;;;;;;0.70;0.70;;;;;;;;;;5053630;28;20029;-72
2023/08/07 13:12:34;;;;;;;1.13;0.75;;;;;;;;;;5035246;28;20025;-72
2023/08/07 13:15:00;;;;;;;2.53;0.63;;;;;;;;;;5035236;28;20120;-72
2023/08/07 13:17:26;;;;;;;1.42;0.60;;;;;;;;;;5052365;28;20107;-72
2023/08/07 13:19:52;;;;;;;0.65;0.43;;;;;;;;;;5053750;28;20025;-72
2023/08/07 13:22:18;;;;;;;0.20;0.20;;;;;;;;;;5053224;28;20086;-72
2023/08/07 13:24:44;;;;;;;5.32;0.80;;;;;;;;;;5051801;28;20431;-72
2023/08/07 13:27:13;;;;;;;0.68;0.50;;;;;;;;;;5051715;28;20029;-72
2023/08/07 13:29:39;;;;;;;1.45;0.60;;;;;;;;;;5052695;28;20071;-73
2023/08/07 13:32:09;;;;;;;0.70;0.60;;;;;;;;;;5052002;28;20047;-73
2023/08/07 13:34:36;;;;;;;1.63;0.50;;;;;;;;;;5052822;28;20021;-72
2023/08/07 13:37:02;;;;;;;0.80;0.40;;;;;;;;;;5053019;28;20022;-71
2023/08/07 13:39:28;;;;;;;3.25;0.50;;;;;;;;;;5052813;28;20036;-73
2023/08/07 13:41:54;;;;;;;0.45;0.30;;;;;;;;;;5034899;28;20029;-72
2023/08/07 13:44:22;;;;;;;0.68;0.40;;;;;;;;;;5052761;28;20032;-72
2023/08/07 13:46:48;;;;;;;0.63;0.50;;;;;;;;;;5052772;28;20108;-72
2023/08/07 13:49:14;;;;;;;0.50;0.43;;;;;;;;;;5052825;28;20051;-72
2023/08/07 13:51:41;;;;;;;1.75;0.38;;;;;;;;;;5035042;28;20138;-71
2023/08/07 13:54:07;;;;;;;0.95;0.38;;;;;;;;;;5052680;28;20017;-72
2023/08/07 13:56:33;;;;;;;1.05;0.40;;;;;;;;;;5052097;28;20059;-72
2023/08/07 13:59:00;;;;;;;0.43;0.43;;;;;;;;;;5052360;28;20021;-72
2023/08/07 14:01:27;;;;;;;1.35;0.30;;;;;;;;;;5052628;28;20029;-72
2023/08/07 14:03:53;;;;;;;0.93;0.20;;;;;;;;;;5052545;28;20057;-73
2023/08/07 14:06:19;;;;;;;0.55;0.43;;;;;;;;;;5052632;28;20029;-73
2023/08/07 14:08:46;;;;;;;2.72;0.70;;;;;;;;;;5051926;28;20087;-71
2023/08/07 14:11:14;;;;;;;2.63;0.90;;;;;;;;;;5052068;28;20017;-73
2023/08/07 14:13:40;;;;;;;3.08;1.33;;;;;;;;;;5052378;28;20017;-73
2023/08/07 14:16:06;;;;;;;5.93;0.98;;;;;;;;;;5034058;28;20488;-72
2023/08/07 14:18:32;;;;;;;3.95;1.48;;;;;;;;;;5051848;28;20021;-71
2023/08/07 14:20:58;;;;;;;6.82;2.08;;;;;;;;;;5052068;28;20053;-71
2023/08/07 14:23:25;;;;;;;4.13;1.67;;;;;;;;;;5052023;28;20017;-71
2023/08/07 14:25:52;;;;;;;3.05;2.20;;;;;;;;;;5051978;28;20031;-71
2023/08/07 14:28:18;;;;;;;3.08;1.42;;;;;;;;;;5050783;28;20447;-71
2023/08/07 14:30:44;;;;;;;6.03;1.88;;;;;;;;;;5051929;28;20044;-72
2023/08/07 14:33:10;;;;;;;5.57;1.58;;;;;;;;;;5051542;28;20515;-72